Time;durP1;ratioP1;P1;durP2;ratioP2;P2;SDS_P1;SDS_P2;PMS_P1;PMS_P2;Temp;Humidity;BMP_temperature;BMP_pressure;BME280_temperature;BME280_humidity;BME280_pressure;Samples;Min_cycle;Max_cycle;Signal;HPM_P1;HPM_P2
2022/09/14 00:00:26;;;;;;;8.82;4.47;;;19.80;99.90;;;;;;5024355;28;20036;-68
2022/09/14 00:02:53;;;;;;;9.07;4.28;;;19.80;99.90;;;;;;5038151;28;20045;-68
2022/09/14 00:05:19;;;;;;;6.72;4.50;;;19.90;99.90;;;;;;5043440;28;20026;-69
2022/09/14 00:07:44;;;;;;;7.43;4.28;;;19.90;99.90;;;;;;5045106;28;20362;-69
2022/09/14 00:10:10;;;;;;;11.45;5.35;;;19.90;99.90;;;;;;5024078;28;20557;-68
2022/09/14 00:12:36;;;;;;;8.20;5.00;;;19.90;99.90;;;;;;5049536;28;20515;-67
2022/09/14 00:15:02;;;;;;;10.27;4.90;;;19.90;99.90;;;;;;5033156;28;20107;-68
2022/09/14 00:17:28;;;;;;;9.23;5.07;;;19.80;99.90;;;;;;5031663;28;20099;-68
2022/09/14 00:19:54;;;;;;;10.98;5.28;;;19.90;99.90;;;;;;5032893;28;20470;-67
2022/09/14 00:22:20;;;;;;;10.52;4.80;;;19.90;99.90;;;;;;5032012;28;20034;-67
2022/09/14 00:24:45;;;;;;;8.40;5.45;;;19.90;99.90;;;;;;5033121;28;20029;-68
2022/09/14 00:27:11;;;;;;;9.60;4.95;;;19.90;99.90;;;;;;5032821;28;20089;-67
2022/09/14 00:29:36;;;;;;;8.38;4.80;;;19.90;99.90;;;;;;5030515;28;20013;-69
2022/09/14 00:32:02;;;;;;;10.60;5.32;;;19.90;99.90;;;;;;5033111;28;20386;-68
2022/09/14 00:34:28;;;;;;;10.43;6.18;;;19.90;99.90;;;;;;5030754;28;20033;-69
2022/09/14 00:36:54;;;;;;;12.80;5.05;;;19.70;99.90;;;;;;5033166;28;20080;-69
2022/09/14 00:39:27;;;;;;;9.75;5.03;;;19.60;99.90;;;;;;5033212;28;20546;-69
2022/09/14 00:41:53;;;;;;;9.82;5.85;;;19.60;99.90;;;;;;5033076;28;20445;-69
2022/09/14 00:44:18;;;;;;;8.70;5.57;;;19.60;99.90;;;;;;5030470;28;20028;-68
2022/09/14 00:46:47;;;;;;;8.50;5.88;;;19.60;99.90;;;;;;5033141;28;20029;-69
2022/09/14 00:49:32;;;;;;;11.75;5.65;;;19.60;99.90;;;;;;5033321;28;20025;-69
2022/09/14 00:52:13;;;;;;;11.40;5.15;;;19.60;99.90;;;;;;5032073;28;20367;-69
2022/09/14 00:54:47;;;;;;;9.85;5.20;;;19.60;99.90;;;;;;5032609;28;20100;-68
2022/09/14 00:57:15;;;;;;;12.27;5.32;;;19.70;99.90;;;;;;5030895;28;20020;-69
2022/09/14 00:59:42;;;;;;;11.65;5.95;;;19.70;99.90;;;;;;5039584;28;20017;-69
2022/09/14 01:02:10;;;;;;;14.02;5.72;;;19.50;99.90;;;;;;5032360;28;20061;-68
2022/09/14 01:04:36;;;;;;;16.95;5.63;;;19.30;99.90;;;;;;5032545;28;20052;-68
2022/09/14 01:07:08;;;;;;;10.13;5.38;;;19.50;99.90;;;;;;5031315;28;20021;-68
2022/09/14 01:09:57;;;;;;;14.27;5.10;;;19.60;99.90;;;;;;5030606;28;20026;-68
2022/09/14 01:12:53;;;;;;;16.02;5.78;;;19.60;99.90;;;;;;5030503;28;20643;-68
2022/09/14 01:15:27;;;;;;;11.07;5.30;;;19.50;99.90;;;;;;5031224;28;20113;-68
2022/09/14 01:18:08;;;;;;;8.27;4.72;;;19.50;99.90;;;;;;5030147;28;20063;-68
2022/09/14 01:20:38;;;;;;;15.55;4.85;;;19.50;99.90;;;;;;5029539;28;20018;-68
2022/09/14 01:23:08;;;;;;;11.55;5.10;;;19.50;99.90;;;;;;5031519;28;20057;-68
2022/09/14 01:25:52;;;;;;;10.18;5.40;;;19.50;99.90;;;;;;5030377;28;20017;-69
2022/09/14 01:28:23;;;;;;;10.00;5.05;;;19.50;99.90;;;;;;5028068;28;20025;-68
2022/09/14 01:30:51;;;;;;;10.63;4.93;;;19.50;99.90;;;;;;5031217;28;20528;-69
2022/09/14 01:33:23;;;;;;;12.23;5.00;;;19.50;99.90;;;;;;5032188;28;20017;-68
2022/09/14 01:35:56;;;;;;;11.65;5.00;;;19.50;99.90;;;;;;5031805;28;20374;-70
2022/09/14 01:38:37;;;;;;;11.52;5.00;;;19.50;99.90;;;;;;5032152;28;20108;-69
2022/09/14 01:41:08;;;;;;;11.52;4.95;;;19.50;99.90;;;;;;5030601;28;20021;-69
2022/09/14 01:43:39;;;;;;;14.73;5.57;;;19.50;99.90;;;;;;5028591;28;20056;-69
2022/09/14 01:46:19;;;;;;;14.15;5.28;;;19.50;99.90;;;;;;5031749;28;20025;-70
2022/09/14 01:49:02;;;;;;;12.82;5.30;;;19.40;99.90;;;;;;5032198;28;20100;-70
2022/09/14 01:51:38;;;;;;;11.50;5.60;;;19.30;99.90;;;;;;5032174;28;20025;-69
2022/09/14 01:54:18;;;;;;;11.50;5.45;;;19.40;99.90;;;;;;5032040;28;20018;-69
2022/09/14 01:57:00;;;;;;;11.48;5.50;;;19.40;99.90;;;;;;5031124;28;20053;-70
2022/09/14 01:59:32;;;;;;;7.35;4.97;;;19.30;99.90;;;;;;5031316;28;20021;-69
2022/09/14 02:02:03;;;;;;;13.97;5.13;;;19.30;99.90;;;;;;5031958;28;20080;-69
2022/09/14 02:04:49;;;;;;;11.88;5.72;;;19.40;99.90;;;;;;5031777;28;20322;-70
2022/09/14 02:07:16;;;;;;;15.85;6.53;;;19.40;99.90;;;;;;5029078;28;20109;-70
2022/09/14 02:09:42;;;;;;;13.07;5.93;;;19.30;99.90;;;;;;5031256;28;20071;-69
2022/09/14 02:12:08;;;;;;;13.18;5.65;;;19.30;99.90;;;;;;5031707;28;20029;-69
2022/09/14 02:14:34;;;;;;;16.52;7.40;;;19.30;99.90;;;;;;5030860;28;20478;-69
2022/09/14 02:17:00;;;;;;;12.48;6.10;;;19.30;99.90;;;;;;5032087;28;20075;-69
2022/09/14 02:19:32;;;;;;;14.52;5.85;;;19.40;99.90;;;;;;5031620;28;20083;-69
2022/09/14 02:21:58;;;;;;;13.65;6.95;;;19.40;99.90;;;;;;5032028;28;20073;-69
2022/09/14 02:24:24;;;;;;;9.55;6.35;;;19.30;99.90;;;;;;5031720;28;20014;-69
2022/09/14 02:26:52;;;;;;;15.13;6.90;;;19.30;99.90;;;;;;5030842;28;20037;-69
2022/09/14 02:29:17;;;;;;;9.57;6.15;;;19.30;99.90;;;;;;5031931;28;20026;-69
2022/09/14 02:31:58;;;;;;;13.55;5.18;;;19.30;99.90;;;;;;5031767;28;20045;-69
2022/09/14 02:34:55;;;;;;;12.13;5.75;;;19.30;99.90;;;;;;5031143;28;20385;-69
2022/09/14 02:37:38;;;;;;;12.75;6.25;;;19.30;99.90;;;;;;5030511;28;20025;-68
2022/09/14 02:40:09;;;;;;;;;;;19.20;99.90;;;;;;5030196;28;20104;-69
2022/09/14 02:42:57;;;;;;;17.42;5.55;;;19.20;99.90;;;;;;5030819;28;19917;-69
2022/09/14 02:45:48;;;;;;;12.02;5.60;;;19.10;99.90;;;;;;5032130;28;20056;-69
2022/09/14 02:48:13;;;;;;;14.20;6.20;;;19.10;99.90;;;;;;5032560;28;20029;-68
2022/09/14 02:50:59;;;;;;;10.98;5.22;;;19.20;99.90;;;;;;5035165;28;20047;-69
2022/09/14 02:53:25;;;;;;;16.38;5.80;;;19.10;99.90;;;;;;5033951;28;20052;-69
2022/09/14 02:55:57;;;;;;;7.70;5.30;;;19.20;99.90;;;;;;5033158;28;20068;-69
2022/09/14 02:58:23;;;;;;;11.45;5.82;;;19.20;99.90;;;;;;5035109;28;20037;-68
2022/09/14 03:00:49;;;;;;;11.13;6.05;;;19.20;99.90;;;;;;5035078;28;20021;-68
2022/09/14 03:03:18;;;;;;;12.35;5.90;;;19.10;99.90;;;;;;5034504;28;20036;-68
2022/09/14 03:05:44;;;;;;;17.60;6.35;;;19.10;99.90;;;;;;5034287;28;20029;-68
2022/09/14 03:08:10;;;;;;;15.73;5.85;;;19.10;99.90;;;;;;5034687;28;20033;-68
2022/09/14 03:10:37;;;;;;;12.90;6.95;;;19.10;99.90;;;;;;5034655;28;20104;-68
2022/09/14 03:13:03;;;;;;;14.32;6.05;;;19.10;99.90;;;;;;5035210;28;20474;-68
2022/09/14 03:15:29;;;;;;;16.95;5.78;;;19.00;99.90;;;;;;5034597;28;20053;-68
2022/09/14 03:17:55;;;;;;;12.45;6.70;;;19.00;99.90;;;;;;5035041;28;20079;-69
2022/09/14 03:20:27;;;;;;;11.23;6.05;;;19.00;99.90;;;;;;5034627;28;20033;-68
2022/09/14 03:22:52;;;;;;;15.38;6.63;;;18.90;99.90;;;;;;5031707;28;20655;-68
2022/09/14 03:25:19;;;;;;;17.08;5.38;;;18.90;99.90;;;;;;5034661;28;20100;-68
2022/09/14 03:27:49;;;;;;;15.35;5.78;;;18.90;99.90;;;;;;5034158;28;20029;-68
2022/09/14 03:30:16;;;;;;;10.98;5.70;;;18.90;99.90;;;;;;5031709;28;20060;-69
2022/09/14 03:32:41;;;;;;;11.30;6.30;;;18.80;99.90;;;;;;5034724;28;20032;-68
2022/09/14 03:35:07;;;;;;;15.20;7.22;;;18.80;99.90;;;;;;5033920;28;20030;-68
2022/09/14 03:37:40;;;;;;;9.13;5.13;;;18.70;99.90;;;;;;5034615;28;20043;-68
2022/09/14 03:40:07;;;;;;;;;;;18.60;99.90;;;;;;5033795;28;20053;-68
2022/09/14 03:42:33;;;;;;;11.73;5.80;;;18.70;99.90;;;;;;5034611;28;20006;-68
2022/09/14 03:44:58;;;;;;;16.58;5.65;;;18.80;99.90;;;;;;5034380;28;20026;-68
2022/09/14 03:47:25;;;;;;;13.85;5.72;;;18.70;99.90;;;;;;5034501;28;20048;-68
2022/09/14 03:49:51;;;;;;;12.90;6.40;;;18.50;99.90;;;;;;5031617;28;20014;-68
2022/09/14 03:52:17;;;;;;;11.38;5.82;;;18.60;99.90;;;;;;5034011;28;20025;-68
2022/09/14 03:54:42;;;;;;;12.98;6.28;;;18.60;99.90;;;;;;5034162;28;20025;-68
2022/09/14 03:57:08;;;;;;;13.65;6.05;;;18.70;99.90;;;;;;5032871;28;20104;-68
2022/09/14 03:59:34;;;;;;;14.02;5.53;;;18.70;99.90;;;;;;5034206;28;20033;-68
2022/09/14 04:02:00;;;;;;;9.55;5.07;;;18.70;99.90;;;;;;5033269;28;20030;-68
2022/09/14 04:04:27;;;;;;;11.65;5.57;;;18.70;99.90;;;;;;5034273;28;20037;-68
2022/09/14 04:06:53;;;;;;;13.70;5.50;;;18.70;99.90;;;;;;5031869;28;20397;-68
2022/09/14 04:09:20;;;;;;;15.05;5.60;;;18.60;99.90;;;;;;5034077;28;20018;-68
2022/09/14 04:11:46;;;;;;;13.80;5.15;;;18.60;99.90;;;;;;5033515;28;20037;-68
2022/09/14 04:14:12;;;;;;;13.50;5.45;;;18.50;99.90;;;;;;5034398;28;20029;-68
2022/09/14 04:16:38;;;;;;;13.20;6.13;;;18.40;99.90;;;;;;5034391;28;20093;-68
2022/09/14 04:19:04;;;;;;;8.13;5.72;;;18.50;99.90;;;;;;5034083;28;20021;-69
2022/09/14 04:21:30;;;;;;;11.98;5.43;;;18.60;99.90;;;;;;5033152;28;20025;-69
2022/09/14 04:23:56;;;;;;;17.00;6.10;;;18.50;99.90;;;;;;5033529;28;20033;-68
2022/09/14 04:26:26;;;;;;;17.15;5.88;;;18.50;99.90;;;;;;5033890;28;20060;-68
2022/09/14 04:28:52;;;;;;;16.88;6.28;;;18.50;99.90;;;;;;5033784;28;20032;-68
2022/09/14 04:31:18;;;;;;;15.02;6.05;;;18.60;99.90;;;;;;5033614;28;20021;-68
2022/09/14 04:33:44;;;;;;;14.20;6.03;;;18.60;99.90;;;;;;5033850;28;20032;-68
2022/09/14 04:36:13;;;;;;;13.57;5.82;;;18.60;99.90;;;;;;5033390;28;20057;-68
2022/09/14 04:38:40;;;;;;;10.35;4.65;;;18.60;99.90;;;;;;5032985;28;20026;-68
2022/09/14 04:41:08;;;;;;;14.68;5.53;;;18.60;99.90;;;;;;5033656;28;20025;-69
2022/09/14 04:43:34;;;;;;;9.70;5.50;;;18.60;99.90;;;;;;5033660;28;20034;-68
2022/09/14 04:46:05;;;;;;;14.48;6.60;;;18.60;99.90;;;;;;5033861;28;20109;-68
2022/09/14 04:48:35;;;;;;;12.32;6.07;;;18.50;99.90;;;;;;5033534;28;20025;-69
2022/09/14 04:51:16;;;;;;;11.25;5.70;;;18.60;99.90;;;;;;5033275;28;20026;-68
2022/09/14 04:53:43;;;;;;;10.52;6.00;;;18.60;99.90;;;;;;5033749;28;20568;-69
2022/09/14 04:56:10;;;;;;;10.63;5.70;;;18.70;99.90;;;;;;5032537;28;20026;-69
2022/09/14 04:58:40;;;;;;;16.17;6.30;;;18.60;99.90;;;;;;5032034;28;20018;-69
2022/09/14 05:01:08;;;;;;;10.88;6.20;;;18.60;99.90;;;;;;5032900;28;20025;-69
2022/09/14 05:03:37;;;;;;;11.32;6.28;;;18.50;99.90;;;;;;5032854;28;20037;-69
2022/09/14 05:06:05;;;;;;;14.02;6.55;;;18.50;99.90;;;;;;5030450;28;20026;-68
2022/09/14 05:08:30;;;;;;;11.25;6.38;;;18.50;99.90;;;;;;5032845;28;20021;-68
2022/09/14 05:10:57;;;;;;;18.30;6.47;;;18.50;99.90;;;;;;5033366;28;20021;-68
2022/09/14 05:13:23;;;;;;;13.80;7.55;;;18.60;99.90;;;;;;5033045;28;20036;-67
2022/09/14 05:15:49;;;;;;;13.73;6.53;;;18.50;99.90;;;;;;5033791;28;20091;-68
2022/09/14 05:18:16;;;;;;;9.63;5.50;;;18.60;99.90;;;;;;5032836;28;20112;-68
2022/09/14 05:20:41;;;;;;;16.75;6.63;;;18.50;99.90;;;;;;5033090;28;20060;-68
2022/09/14 05:23:07;;;;;;;13.27;6.38;;;18.40;99.90;;;;;;5033141;28;20072;-68
2022/09/14 05:25:32;;;;;;;14.05;6.25;;;18.40;99.90;;;;;;5033284;28;20021;-68
2022/09/14 05:27:58;;;;;;;11.57;6.25;;;18.30;99.90;;;;;;5032584;28;20038;-68
2022/09/14 05:30:24;;;;;;;13.55;6.20;;;18.30;99.90;;;;;;5031760;28;20033;-68
2022/09/14 05:32:49;;;;;;;10.20;6.20;;;18.40;99.90;;;;;;5032764;28;20082;-68
2022/09/14 05:35:15;;;;;;;16.50;7.22;;;18.50;99.90;;;;;;5031595;28;20033;-67
2022/09/14 05:37:41;;;;;;;10.93;6.28;;;18.50;99.90;;;;;;5031025;28;20505;-67
2022/09/14 05:40:07;;;;;;;11.63;6.45;;;18.30;99.90;;;;;;5032658;28;20034;-67
2022/09/14 05:42:33;;;;;;;10.18;6.57;;;18.40;99.90;;;;;;5032663;28;20132;-67
2022/09/14 05:44:59;;;;;;;12.55;6.05;;;18.30;99.90;;;;;;5032855;28;20537;-67
2022/09/14 05:47:28;;;;;;;11.18;6.30;;;18.30;99.90;;;;;;5032568;28;20045;-67
2022/09/14 05:49:53;;;;;;;8.27;5.15;;;18.30;99.90;;;;;;5030938;28;20021;-67
2022/09/14 05:52:19;;;;;;;12.95;6.00;;;18.20;99.90;;;;;;5032197;28;20350;-68
2022/09/14 05:54:45;;;;;;;12.98;5.30;;;18.20;99.90;;;;;;5029900;28;20065;-68
2022/09/14 05:57:10;;;;;;;12.73;6.25;;;18.00;99.90;;;;;;5032324;28;20036;-67
2022/09/14 05:59:36;;;;;;;14.07;5.35;;;18.00;99.90;;;;;;5032225;28;20052;-67
2022/09/14 06:02:02;;;;;;;11.18;5.22;;;18.00;99.90;;;;;;5032317;28;20064;-67
2022/09/14 06:04:28;;;;;;;15.05;5.72;;;18.10;99.90;;;;;;5031882;28;20227;-67
2022/09/14 06:06:54;;;;;;;12.45;5.25;;;18.00;99.90;;;;;;5032718;28;20025;-68
2022/09/14 06:09:19;;;;;;;9.55;4.72;;;18.00;99.90;;;;;;5032368;28;20029;-67
2022/09/14 06:11:45;;;;;;;9.48;4.25;;;18.10;99.90;;;;;;5032482;28;20071;-68
2022/09/14 06:14:11;;;;;;;10.77;4.70;;;18.00;99.90;;;;;;5029191;28;20088;-67
2022/09/14 06:16:36;;;;;;;10.55;5.45;;;18.10;99.90;;;;;;5031578;28;20025;-67
2022/09/14 06:19:03;;;;;;;20.90;5.43;;;18.00;99.90;;;;;;5031283;28;20022;-67
2022/09/14 06:21:31;;;;;;;15.43;5.15;;;17.90;99.90;;;;;;5036152;28;20025;-68
2022/09/14 06:23:57;;;;;;;11.65;5.32;;;18.00;99.90;;;;;;5036428;28;20060;-67
2022/09/14 06:26:23;;;;;;;10.55;5.07;;;18.00;99.90;;;;;;5036223;28;20382;-67
2022/09/14 06:28:49;;;;;;;14.70;5.45;;;18.10;99.90;;;;;;5035155;28;20033;-67
2022/09/14 06:31:16;;;;;;;13.65;5.47;;;18.10;99.90;;;;;;5036357;28;20029;-67
2022/09/14 06:33:44;;;;;;;13.80;4.88;;;18.10;99.90;;;;;;5036194;28;20477;-67
2022/09/14 06:36:11;;;;;;;16.15;4.75;;;18.10;99.90;;;;;;5033134;28;20033;-67
2022/09/14 06:38:37;;;;;;;7.50;4.68;;;18.00;99.90;;;;;;5034910;28;20021;-67
2022/09/14 06:41:06;;;;;;;11.57;5.10;;;18.10;99.90;;;;;;5026446;28;20029;-67
2022/09/14 06:43:34;;;;;;;10.18;5.45;;;18.10;99.90;;;;;;5029029;28;20042;-67
2022/09/14 06:46:03;;;;;;;10.73;5.35;;;18.00;99.90;;;;;;5015894;28;20035;-67
2022/09/14 06:48:33;;;;;;;10.45;5.47;;;18.00;99.90;;;;;;5014395;28;20372;-67
2022/09/14 06:50:59;;;;;;;11.10;5.30;;;18.00;99.90;;;;;;5015807;28;20034;-67
2022/09/14 06:53:25;;;;;;;11.43;5.82;;;18.00;99.90;;;;;;5015656;28;20029;-67
2022/09/14 06:55:51;;;;;;;10.40;5.40;;;18.00;99.90;;;;;;5032366;28;20025;-68
2022/09/14 06:58:17;;;;;;;11.93;5.40;;;17.90;99.90;;;;;;5035387;28;20029;-67
2022/09/14 07:00:42;;;;;;;12.93;5.80;;;17.90;99.90;;;;;;5030772;28;20048;-67
2022/09/14 07:03:08;;;;;;;17.00;6.43;;;17.90;99.90;;;;;;5035844;28;20037;-67
2022/09/14 07:05:34;;;;;;;17.20;6.78;;;18.00;99.90;;;;;;5035492;28;20022;-67
2022/09/14 07:07:59;;;;;;;12.50;6.43;;;17.90;99.90;;;;;;5035512;28;20025;-67
2022/09/14 07:10:27;;;;;;;8.77;6.18;;;17.80;99.90;;;;;;5034804;28;20017;-67
2022/09/14 07:12:53;;;;;;;8.20;6.15;;;17.80;99.90;;;;;;5035027;28;20509;-67
2022/09/14 07:15:20;;;;;;;13.00;6.10;;;17.70;99.90;;;;;;5032534;28;20061;-67
2022/09/14 07:17:46;;;;;;;14.55;6.80;;;17.80;99.90;;;;;;5033527;28;20391;-68
2022/09/14 07:20:12;;;;;;;7.95;6.15;;;17.70;99.90;;;;;;5033367;28;20029;-68
2022/09/14 07:22:38;;;;;;;10.75;6.40;;;17.80;99.90;;;;;;5030522;28;20113;-68
2022/09/14 07:25:04;;;;;;;15.05;7.22;;;17.70;99.90;;;;;;5032702;28;20100;-67
2022/09/14 07:27:29;;;;;;;11.70;7.15;;;17.70;99.90;;;;;;5030520;28;20033;-67
2022/09/14 07:29:55;;;;;;;14.77;7.60;;;17.70;99.90;;;;;;5027527;28;20057;-67
2022/09/14 07:32:20;;;;;;;12.13;7.25;;;17.70;99.90;;;;;;5028623;28;20034;-66
2022/09/14 07:34:46;;;;;;;11.68;7.40;;;17.70;99.90;;;;;;5030171;28;20087;-66
2022/09/14 07:37:12;;;;;;;15.00;7.70;;;17.70;99.90;;;;;;5026302;28;20034;-67
2022/09/14 07:39:37;;;;;;;12.07;7.20;;;17.60;99.90;;;;;;5030038;28;20030;-67
2022/09/14 07:42:03;;;;;;;12.38;7.57;;;17.60;99.90;;;;;;5033625;28;20037;-67
2022/09/14 07:44:29;;;;;;;10.98;7.82;;;17.50;99.90;;;;;;5032734;28;20040;-67
2022/09/14 07:46:54;;;;;;;12.77;7.65;;;17.60;99.90;;;;;;5033444;28;20493;-67
2022/09/14 07:49:21;;;;;;;12.23;8.15;;;17.60;99.90;;;;;;5032926;28;20018;-67
2022/09/14 07:51:47;;;;;;;10.85;8.23;;;17.70;99.90;;;;;;5033397;28;20025;-67
2022/09/14 07:54:15;;;;;;;15.02;8.95;;;17.80;99.90;;;;;;5033175;28;20069;-67
2022/09/14 07:56:42;;;;;;;13.30;7.50;;;17.70;99.90;;;;;;5032827;28;20064;-67
2022/09/14 07:59:13;;;;;;;13.80;8.50;;;17.70;99.90;;;;;;5031726;28;20461;-67
2022/09/14 08:01:39;;;;;;;14.90;8.80;;;17.70;99.90;;;;;;5033204;28;20026;-68
2022/09/14 08:04:05;;;;;;;13.57;9.57;;;17.70;99.90;;;;;;5033091;28;20036;-68
2022/09/14 08:06:31;;;;;;;12.73;9.52;;;17.70;99.90;;;;;;5032655;28;20053;-67
2022/09/14 08:08:57;;;;;;;11.05;9.38;;;17.80;99.90;;;;;;5032979;28;20037;-68
2022/09/14 08:11:26;;;;;;;14.05;10.30;;;17.80;99.90;;;;;;5032762;28;20060;-67
2022/09/14 08:13:57;;;;;;;10.90;9.73;;;17.80;99.90;;;;;;4993356;28;1117802;-68
2022/09/14 08:16:24;;;;;;;16.85;10.45;;;17.70;99.90;;;;;;5034447;28;20108;-67
2022/09/14 08:18:55;;;;;;;13.10;10.75;;;17.60;99.90;;;;;;5033971;28;20034;-68
2022/09/14 08:21:21;;;;;;;13.57;11.43;;;17.60;99.90;;;;;;5034303;28;20033;-69
2022/09/14 08:23:48;;;;;;;13.55;10.82;;;17.60;99.90;;;;;;5034124;28;20079;-67
2022/09/14 08:26:19;;;;;;;15.68;13.27;;;17.60;99.90;;;;;;5033782;28;20029;-68
2022/09/14 08:28:46;;;;;;;14.02;12.40;;;17.60;99.90;;;;;;5034218;28;20044;-69
2022/09/14 08:31:20;;;;;;;18.23;13.13;;;17.70;99.90;;;;;;5034024;28;20022;-68
2022/09/14 08:33:51;;;;;;;13.57;11.57;;;17.60;99.90;;;;;;5033975;28;20533;-68
2022/09/14 08:36:19;;;;;;;15.77;11.52;;;17.70;99.90;;;;;;5031508;28;20032;-67
2022/09/14 08:38:44;;;;;;;17.30;12.98;;;17.80;99.90;;;;;;5032543;28;20025;-68
2022/09/14 08:41:10;;;;;;;14.70;13.05;;;17.90;99.90;;;;;;5032944;28;20080;-68
2022/09/14 08:43:37;;;;;;;13.48;12.07;;;17.80;99.90;;;;;;5033348;28;20044;-68
2022/09/14 08:46:07;;;;;;;13.63;12.23;;;18.00;99.90;;;;;;5033352;28;20040;-68
2022/09/14 08:48:39;;;;;;;12.02;10.63;;;17.90;99.90;;;;;;5033549;28;20057;-68
2022/09/14 08:51:05;;;;;;;14.23;10.80;;;17.80;99.90;;;;;;5033322;28;20026;-67
2022/09/14 08:53:36;;;;;;;15.93;10.07;;;17.90;99.90;;;;;;5033228;28;20025;-68
2022/09/14 08:56:16;;;;;;;12.02;10.70;;;17.80;99.90;;;;;;5032792;28;20022;-68
2022/09/14 08:59:16;;;;;;;12.90;10.82;;;17.60;99.90;;;;;;5025213;28;20434;-67
2022/09/14 09:01:53;;;;;;;12.15;8.73;;;17.60;99.90;;;;;;5027782;28;20029;-67
2022/09/14 09:04:30;;;;;;;6.63;5.00;;;17.60;99.90;;;;;;5033025;28;20108;-68
2022/09/14 09:06:58;;;;;;;10.07;5.57;;;17.60;99.90;;;;;;5032006;28;20071;-67
2022/09/14 09:09:32;;;;;;;6.13;5.47;;;17.60;99.90;;;;;;5033831;28;20505;-68
2022/09/14 09:11:59;;;;;;;5.07;4.47;;;17.60;99.90;;;;;;5032234;28;20112;-68
2022/09/14 09:14:40;;;;;;;5.95;4.60;;;17.90;99.90;;;;;;5033253;28;20053;-68
2022/09/14 09:17:32;;;;;;;5.30;4.47;;;17.70;99.90;;;;;;5033272;28;20025;-68
2022/09/14 09:20:22;;;;;;;5.70;3.80;;;17.70;99.90;;;;;;5013301;28;20026;-68
2022/09/14 09:23:10;;;;;;;4.80;4.30;;;17.60;99.90;;;;;;5013479;28;20109;-68
2022/09/14 09:25:57;;;;;;;6.05;4.15;;;17.70;99.90;;;;;;5025139;28;20079;-68
2022/09/14 09:28:25;;;;;;;4.93;3.25;;;17.70;99.90;;;;;;5033091;28;20029;-68
2022/09/14 09:30:53;;;;;;;5.93;2.70;;;17.80;99.90;;;;;;5033041;28;20497;-68
2022/09/14 09:33:23;;;;;;;5.68;3.15;;;17.80;99.90;;;;;;5031799;28;20172;-68
2022/09/14 09:35:50;;;;;;;5.78;3.40;;;17.70;99.90;;;;;;5032848;28;20030;-69
2022/09/14 09:38:23;;;;;;;5.03;3.50;;;17.80;99.90;;;;;;5031529;28;20135;-68
2022/09/14 09:41:11;;;;;;;7.32;3.63;;;17.80;99.90;;;;;;5031632;28;20108;-68
2022/09/14 09:43:56;;;;;;;5.63;3.08;;;17.70;99.90;;;;;;5029191;28;20029;-68
2022/09/14 09:46:22;;;;;;;8.15;3.10;;;17.60;99.90;;;;;;5022022;28;20034;-68
2022/09/14 09:48:48;;;;;;;4.97;3.20;;;17.50;99.90;;;;;;5008590;28;20382;-68
2022/09/14 09:51:29;;;;;;;4.88;2.53;;;17.50;99.90;;;;;;5029173;28;20033;-68
2022/09/14 09:54:11;;;;;;;5.68;3.10;;;17.50;99.90;;;;;;5035445;28;20058;-69
2022/09/14 09:56:51;;;;;;;7.32;2.55;;;17.50;99.90;;;;;;5038349;28;20029;-68
2022/09/14 09:59:38;;;;;;;7.55;2.70;;;17.30;99.90;;;;;;5048237;28;20028;-68
2022/09/14 10:02:25;;;;;;;4.43;1.98;;;17.10;99.90;;;;;;5029872;28;20036;-67
2022/09/14 10:05:03;;;;;;;6.53;2.38;;;17.10;99.90;;;;;;5027978;28;20443;-67
2022/09/14 10:07:32;;;;;;;6.03;2.45;;;17.30;99.90;;;;;;5034328;28;20460;-68
2022/09/14 10:10:03;;;;;;;6.03;2.45;;;17.30;99.90;;;;;;5027962;28;20017;-67
2022/09/14 10:12:30;;;;;;;7.72;2.42;;;17.30;99.90;;;;;;5025441;28;20037;-68
2022/09/14 10:15:15;;;;;;;4.82;2.60;;;17.10;99.90;;;;;;5028550;28;20505;-67
2022/09/14 10:18:04;;;;;;;5.60;3.13;;;16.90;99.90;;;;;;5021087;28;20038;-67
2022/09/14 10:20:30;;;;;;;6.75;3.03;;;17.00;99.90;;;;;;5024581;28;20022;-67
2022/09/14 10:23:24;;;;;;;10.38;3.10;;;17.10;99.90;;;;;;5036360;28;20091;-68
2022/09/14 10:26:12;;;;;;;7.88;3.10;;;17.20;99.90;;;;;;5027593;28;20371;-67
2022/09/14 10:28:46;;;;;;;4.97;3.17;;;17.30;99.90;;;;;;5029166;28;20025;-67
2022/09/14 10:31:14;;;;;;;7.55;3.08;;;17.50;99.90;;;;;;5025591;28;20033;-68
2022/09/14 10:33:41;;;;;;;7.82;3.30;;;17.20;99.90;;;;;;5023724;28;20489;-66
2022/09/14 10:36:10;;;;;;;19.48;4.03;;;16.90;99.90;;;;;;5034556;28;20037;-67
2022/09/14 10:38:57;;;;;;;6.10;3.47;;;16.90;99.90;;;;;;5026055;28;20021;-66
2022/09/14 10:41:37;;;;;;;4.22;3.55;;;17.10;99.90;;;;;;5026388;28;20080;-65
2022/09/14 10:44:06;;;;;;;5.88;3.38;;;17.10;99.90;;;;;;5028428;28;20069;-66
2022/09/14 10:47:02;;;;;;;5.30;3.45;;;17.10;99.90;;;;;;5025756;28;20021;-66
2022/09/14 10:49:57;;;;;;;5.90;4.00;;;17.30;99.90;;;;;;5028678;28;20100;-67
2022/09/14 10:52:51;;;;;;;5.57;3.35;;;17.40;99.90;;;;;;5030612;28;20036;-67
2022/09/14 10:55:41;;;;;;;7.55;3.80;;;17.30;99.90;;;;;;5029887;28;20069;-67
2022/09/14 10:58:44;;;;;;;5.45;3.63;;;17.40;99.90;;;;;;5028081;28;20079;-67
2022/09/14 11:01:09;;;;;;;;;;;17.50;99.90;;;;;;5028191;28;20063;-68
2022/09/14 11:04:24;;;;;;;7.10;4.43;;;17.50;99.90;;;;;;5030364;28;19959;-67
2022/09/14 11:07:00;;;;;;;6.00;4.30;;;17.40;99.90;;;;;;5029407;28;20102;-66
2022/09/14 11:09:36;;;;;;;7.60;4.35;;;17.40;99.90;;;;;;5029417;28;20110;-68
2022/09/14 11:12:11;;;;;;;4.97;4.35;;;17.30;99.90;;;;;;5031721;28;20410;-67
2022/09/14 11:15:14;;;;;;;7.50;4.93;;;17.40;99.90;;;;;;5032629;28;20049;-66
2022/09/14 11:18:08;;;;;;;6.65;4.50;;;17.40;99.90;;;;;;5023304;28;20026;-67
2022/09/14 11:21:09;;;;;;;7.85;5.00;;;17.50;99.90;;;;;;5024318;28;20076;-67
2022/09/14 11:23:47;;;;;;;7.15;5.43;;;17.40;99.90;;;;;;5029461;28;20072;-67
2022/09/14 11:26:33;;;;;;;8.73;6.50;;;17.30;99.90;;;;;;5029732;28;20028;-67
2022/09/14 11:29:04;;;;;;;11.45;7.18;;;17.30;99.90;;;;;;5029355;28;20132;-66
2022/09/14 11:31:33;;;;;;;8.93;6.45;;;17.40;99.90;;;;;;5031689;28;20053;-67
2022/09/14 11:34:25;;;;;;;8.68;6.57;;;17.30;99.90;;;;;;5032946;28;20113;-66
2022/09/14 11:37:00;;;;;;;8.35;6.50;;;17.20;99.90;;;;;;5026971;28;20065;-67
2022/09/14 11:39:34;;;;;;;8.13;6.80;;;17.30;99.90;;;;;;5028626;28;20018;-66
2022/09/14 11:42:04;;;;;;;11.27;6.70;;;17.40;99.90;;;;;;5031197;28;20225;-67
2022/09/14 11:44:38;;;;;;;9.77;7.80;;;17.40;99.90;;;;;;5040976;28;20671;-67
2022/09/14 11:47:21;;;;;;;12.60;7.63;;;17.50;99.90;;;;;;5045406;28;20541;-66
2022/09/14 11:50:05;;;;;;;11.48;8.70;;;17.50;99.90;;;;;;5030647;28;20026;-66
2022/09/14 11:52:32;;;;;;;12.63;8.75;;;17.40;99.90;;;;;;5031714;28;20075;-67
2022/09/14 11:55:00;;;;;;;9.25;7.35;;;17.60;99.90;;;;;;5032365;28;20034;-67
2022/09/14 11:57:30;;;;;;;11.23;7.68;;;17.60;99.90;;;;;;5039209;28;20033;-66
2022/09/14 12:00:06;;;;;;;15.00;10.20;;;17.50;99.90;;;;;;5032898;28;20470;-67
2022/09/14 12:02:35;;;;;;;12.02;9.23;;;17.30;99.90;;;;;;5030791;28;20033;-67
2022/09/14 12:05:04;;;;;;;12.00;8.40;;;17.10;99.90;;;;;;5032527;28;20072;-67
2022/09/14 12:07:38;;;;;;;12.32;8.88;;;17.30;99.90;;;;;;5039458;28;20470;-67
2022/09/14 12:10:13;;;;;;;11.02;8.40;;;17.40;99.90;;;;;;5030517;28;20029;-68
2022/09/14 12:12:52;;;;;;;9.55;8.32;;;17.50;99.90;;;;;;5031861;28;20108;-66
2022/09/14 12:15:25;;;;;;;8.93;8.00;;;17.60;99.90;;;;;;5028243;28;20025;-66
2022/09/14 12:18:15;;;;;;;11.05;8.80;;;17.60;99.90;;;;;;5030288;28;20121;-66
2022/09/14 12:20:49;;;;;;;10.35;7.82;;;17.60;99.90;;;;;;5035446;28;20146;-65
2022/09/14 12:23:23;;;;;;;9.80;8.15;;;17.60;99.90;;;;;;5036920;28;20055;-67
2022/09/14 12:26:10;;;;;;;11.13;9.25;;;17.60;99.90;;;;;;5031439;28;20100;-67
2022/09/14 12:28:39;;;;;;;11.32;8.13;;;17.80;99.90;;;;;;5031109;28;20091;-66
2022/09/14 12:31:05;;;;;;;9.07;7.10;;;17.80;99.90;;;;;;5031990;28;20093;-67
2022/09/14 12:33:31;;;;;;;10.75;8.63;;;17.80;99.90;;;;;;5032210;28;20033;-66
2022/09/14 12:35:58;;;;;;;9.20;7.97;;;17.70;99.90;;;;;;5027393;28;20029;-66
2022/09/14 12:38:30;;;;;;;10.52;6.57;;;17.70;99.90;;;;;;5029391;28;20033;-66
2022/09/14 12:41:14;;;;;;;7.43;6.07;;;17.60;99.90;;;;;;5030396;28;20600;-67
2022/09/14 12:43:52;;;;;;;10.63;6.30;;;17.50;99.90;;;;;;5032444;28;20049;-66
2022/09/14 12:46:21;;;;;;;8.15;6.22;;;17.50;99.90;;;;;;5030480;28;20025;-67
2022/09/14 12:48:47;;;;;;;7.57;6.88;;;17.60;99.90;;;;;;5030585;28;20037;-67
2022/09/14 12:51:24;;;;;;;8.30;7.28;;;17.60;99.90;;;;;;5027709;28;20104;-67
2022/09/14 12:54:07;;;;;;;8.27;7.47;;;17.70;99.90;;;;;;5037739;28;20140;-66
2022/09/14 12:56:36;;;;;;;9.35;8.02;;;17.50;99.90;;;;;;5025369;28;20095;-67
2022/09/14 12:59:11;;;;;;;9.57;7.25;;;17.60;99.90;;;;;;5030202;28;20029;-66
2022/09/14 13:01:47;;;;;;;11.23;8.18;;;17.50;99.90;;;;;;5029032;28;20508;-66